Aeroporto :
LOGIN :

Iscrizione | Disclaimer

   EN    FR    IT 

 










Sommario :    VFR   VFR Marginale   IFR   IFR Intensivo   IFR Molto Intensivo
Visibilità : 
Base nubi : 
>= 8 km
>= 3000ft
5 / 8 km
1000 / 3000 ft
1500m / 5 km
500 / 1000 ft
800 / 1500m
200 / 500 ft
< 800m
< 200 ft
Simboli :   Temporali  Nebbia  Neve Forte  Precipitazioni Forti  Vento > 20 kt
SIGMETs :   Varie  Temporali  Ghiacco  Turbolenza  Onda orograficha  Ceneri Vulcaniche






- Altitudine del aeroporto : 55 ft
- Codice IATA : DSA


EGCN - Robin Hood Doncaster Sheffield

ULTIMO METAR :
  • 220120Z 21021KT 9999 RA SCT019 BKN024 09/08 Q1008

METARs OBSOLETI :
  • 220020Z 21020KT 9999 RA BKN018 OVC023 09/07 Q1008
  • 212250Z 21024G35KT 9999 -SHRA FEW016 BKN022 09/07 Q1010

TAF TAF EGCN
Valido dal 21 a 18 ore il 22 a 18 ore UTC


211702Z 2118/2218 20015G25KT 9999 FEW012 BKN025
TEMPO 2118/2203 22023G35KT 8000 -RA
PROB30
TEMPO 2121/2203 RA BKN012
BECMG 2203/2206 26015KT
TEMPO 2203/2206 24022G35KT 3000 +SHRA BKN012
TEMPO 2206/2218 26018G30KT 6000 SHRA



MetMap, La meteo Aeronautica in un colpo d'occhio ! - Copyright ORBIFLY Dicembre 2007 - Disclaimer

ORBIFLY MET'MAP TEAM :

Programmazione e sviluppo : Alexandra Zaïnal
Concezione : Baudouin d'Aumeries
Aiuto per la programmazione : Marc-Olivier Méhu
Supporto tecnico e logistico : Manuel Goepfert
Aiuto per la traduzione : Arnaldo La Scala

Contatto : metmap@orbifly.com




FONTI E CREDITI :

   NOAA